Time,TemperatureF,DewpointF,PressureIn,WindDirection,WindDirectionDegrees,WindSpeedMPH,WindSpeedGustMPH,Humidity,HourlyPrecipIn,Conditions,Clouds,dailyrainin,SoftwareType,DateUTC
2013-04-15 00:03:00,33.0,26.0,-100.00,North,0,0.0,4.0,75,0.00,,,-99.99,,2013-04-15 04:03:00,
2013-04-15 00:13:00,33.0,26.0,-100.00,NE,45,2.0,4.0,77,0.00,,,-99.99,,2013-04-15 04:13:00,
2013-04-15 00:23:00,32.0,26.0,-100.00,SE,135,1.0,4.0,78,0.00,,,-99.99,,2013-04-15 04:23:00,
2013-04-15 00:33:00,32.0,26.0,-100.00,North,-999,-999.0,-999.0,80,0.00,,,-99.99,,2013-04-15 04:33:00,
2013-04-15 00:43:00,33.0,27.0,-100.00,NNW,345,1.0,2.0,81,0.00,,,-99.99,,2013-04-15 04:43:00,
2013-04-15 00:52:00,33.0,27.0,-100.00,North,10,0.0,1.0,81,0.00,,,-99.99,,2013-04-15 04:52:00,
2013-04-15 01:03:00,32.0,27.0,-100.00,SW,235,1.0,2.0,82,0.00,,,-99.99,,2013-04-15 05:03:00,
2013-04-15 01:12:00,31.0,28.0,-100.00,SSE,150,2.0,3.0,86,0.00,,,-99.99,,2013-04-15 05:12:00,
2013-04-15 01:23:00,33.0,29.0,-100.00,North,-999,-999.0,-999.0,85,-99.99,,,-99.99,,2013-04-15 05:23:00,
2013-04-15 01:33:00,32.0,28.0,-100.00,ESE,120,0.0,3.0,83,0.00,,,-99.99,,2013-04-15 05:33:00,
2013-04-15 01:42:00,32.0,28.0,-100.00,SSE,150,1.0,2.0,83,0.00,,,-99.99,,2013-04-15 05:42:00,
2013-04-15 01:52:00,33.0,28.0,-100.00,SE,130,1.0,3.0,81,0.00,,,-99.99,,2013-04-15 05:52:00,
2013-04-15 02:02:00,33.0,28.0,-100.00,East,100,1.0,2.0,81,0.00,,,-99.99,,2013-04-15 06:02:00,
2013-04-15 02:12:00,33.0,27.0,-100.00,NNE,15,1.0,3.0,80,0.00,,,-99.99,,2013-04-15 06:12:00,
2013-04-15 02:23:00,32.0,27.0,-100.00,East,100,1.0,3.0,81,0.00,,,-99.99,,2013-04-15 06:23:00,
2013-04-15 02:33:00,31.0,27.0,-100.00,SE,135,1.0,2.0,84,0.00,,,-99.99,,2013-04-15 06:33:00,
2013-04-15 02:42:00,31.0,28.0,-100.00,SSE,150,1.0,1.0,86,0.00,,,-99.99,,2013-04-15 06:42:00,
2013-04-15 02:52:00,32.0,28.0,-100.00,ENE,70,2.0,2.0,85,0.00,,,-99.99,,2013-04-15 06:52:00,
2013-04-15 03:03:00,31.0,27.0,-100.00,West,280,1.0,3.0,84,0.00,,,-99.99,,2013-04-15 07:03:00,
2013-04-15 03:41:00,31.0,27.0,-100.00,South,180,0.0,1.0,86,0.00,,,-99.99,,2013-04-15 07:41:00,
2013-04-15 03:43:00,31.0,28.0,-100.00,North,10,2.0,4.0,89,0.00,,,-99.99,,2013-04-15 07:43:00,
2013-04-15 03:52:00,31.0,28.0,-100.00,North,10,2.0,4.0,89,0.00,,,-99.99,,2013-04-15 07:52:00,
2013-04-15 04:02:00,31.0,28.0,-100.00,North,10,2.0,4.0,89,0.00,,,-99.99,,2013-04-15 08:02:00,
2013-04-15 04:13:00,31.0,28.0,-100.00,North,10,2.0,4.0,89,0.00,,,-99.99,,2013-04-15 08:13:00,
2013-04-15 04:22:00,30.0,29.0,-100.00,NE,35,2.0,5.0,92,0.00,,,-99.99,,2013-04-15 08:22:00,
2013-04-15 04:34:00,31.0,29.0,-100.00,NE,45,2.0,6.0,91,0.00,,,-99.99,,2013-04-15 08:34:00,
2013-04-15 04:43:00,31.0,28.0,-100.00,East,80,1.0,2.0,90,0.00,,,-99.99,,2013-04-15 08:43:00,
2013-04-15 04:52:00,30.0,27.0,-100.00,NE,45,0.0,2.0,90,0.00,,,-99.99,,2013-04-15 08:52:00,
2013-04-15 05:03:00,30.0,28.0,-100.00,NNE,20,1.0,1.0,91,0.00,,,-99.99,,2013-04-15 09:03:00,
2013-04-15 05:12:00,30.0,27.0,-100.00,West,260,0.0,1.0,91,0.00,,,-99.99,,2013-04-15 09:12:00,
2013-04-15 05:23:00,29.0,27.0,-100.00,SSE,165,2.0,2.0,92,0.00,,,-99.99,,2013-04-15 09:23:00,
2013-04-15 05:33:00,29.0,27.0,-100.00,SSE,150,1.0,3.0,94,0.00,,,-99.99,,2013-04-15 09:33:00,
2013-04-15 05:43:00,29.0,28.0,-100.00,SE,135,1.0,3.0,96,0.00,,,-99.99,,2013-04-15 09:43:00,
2013-04-15 05:53:00,29.0,28.0,-100.00,ENE,70,0.0,1.0,97,0.00,,,-99.99,,2013-04-15 09:53:00,
2013-04-15 06:13:00,29.0,28.0,-100.00,WNW,290,0.0,1.0,97,0.00,,,-99.99,,2013-04-15 10:13:00,
2013-04-15 06:23:00,29.0,29.0,-100.00,South,190,0.0,1.0,97,0.00,,,-99.99,,2013-04-15 10:23:00,
2013-04-15 06:33:00,29.0,29.0,-100.00,South,170,1.0,1.0,97,0.00,,,-99.99,,2013-04-15 10:33:00,
2013-04-15 06:42:00,30.0,29.0,-100.00,SE,135,1.0,1.0,97,0.00,,,-99.99,,2013-04-15 10:42:00,
2013-04-15 06:52:00,30.0,29.0,-100.00,East,100,1.0,2.0,97,0.00,,,-99.99,,2013-04-15 10:52:00,
2013-04-15 07:03:00,30.0,29.0,-100.00,SE,145,1.0,1.0,97,0.00,,,-99.99,,2013-04-15 11:03:00,
2013-04-15 07:12:00,30.0,30.0,-100.00,SSE,155,1.0,1.0,97,0.00,,,-99.99,,2013-04-15 11:12:00,
2013-04-15 07:23:00,31.0,30.0,-100.00,SE,135,0.0,1.0,96,0.00,,,-99.99,,2013-04-15 11:23:00,
2013-04-15 07:32:00,31.0,30.0,-100.00,NE,35,1.0,1.0,93,0.00,,,-99.99,,2013-04-15 11:32:00,
2013-04-15 07:43:00,31.0,30.0,-100.00,NE,35,1.0,1.0,93,0.00,,,-99.99,,2013-04-15 11:43:00,
2013-04-15 07:53:00,31.0,30.0,-100.00,NE,35,1.0,1.0,93,0.00,,,-99.99,,2013-04-15 11:53:00,
2013-04-15 08:04:00,31.0,30.0,-100.00,NE,35,1.0,1.0,93,0.00,,,-99.99,,2013-04-15 12:04:00,
2013-04-15 08:14:00,31.0,30.0,-100.00,NE,35,1.0,1.0,93,0.00,,,-99.99,,2013-04-15 12:14:00,
2013-04-15 09:05:00,37.0,29.0,-100.00,WNW,290,1.0,3.0,72,0.00,,,-99.99,,2013-04-15 13:05:00,
2013-04-15 09:13:00,38.0,28.0,-100.00,North,-999,-999.0,-999.0,68,0.00,,,-99.99,,2013-04-15 13:13:00,
2013-04-15 09:23:00,38.0,28.0,-100.00,North,5,1.0,4.0,68,0.00,,,-99.99,,2013-04-15 13:23:00,
2013-04-15 09:34:00,38.0,29.0,-100.00,NNW,340,2.0,4.0,69,0.00,,,-99.99,,2013-04-15 13:34:00,
2013-04-15 09:43:00,38.0,28.0,-100.00,North,355,1.0,4.0,66,0.00,,,-99.99,,2013-04-15 13:43:00,
2013-04-15 09:53:00,39.0,29.0,-100.00,WSW,255,1.0,3.0,66,0.00,,,-99.99,,2013-04-15 13:53:00,
2013-04-15 10:05:00,39.0,28.0,-100.00,WSW,250,1.0,2.0,64,0.00,,,-99.99,,2013-04-15 14:05:00,
2013-04-15 10:13:00,40.0,28.0,-100.00,NW,315,0.0,3.0,61,0.00,,,-99.99,,2013-04-15 14:13:00,
2013-04-15 10:22:00,40.0,28.0,-100.00,SSE,160,0.0,2.0,60,0.00,,,-99.99,,2013-04-15 14:22:00,
2013-04-15 10:33:00,41.0,28.0,-100.00,WSW,255,1.0,3.0,60,0.00,,,-99.99,,2013-04-15 14:33:00,
2013-04-15 10:44:00,41.0,28.0,-100.00,WSW,240,2.0,4.0,60,0.00,,,-99.99,,2013-04-15 14:44:00,
2013-04-15 10:54:00,42.0,27.0,-100.00,ENE,70,1.0,4.0,55,0.00,,,-99.99,,2013-04-15 14:54:00,
2013-04-15 11:03:00,44.0,27.0,-100.00,South,170,3.0,6.0,51,0.00,,,-99.99,,2013-04-15 15:03:00,
2013-04-15 11:13:00,43.0,26.0,-100.00,SSE,150,3.0,6.0,49,0.00,,,-99.99,,2013-04-15 15:13:00,
2013-04-15 11:24:00,43.0,25.0,-100.00,South,170,8.0,11.0,49,0.00,,,-99.99,,2013-04-15 15:24:00,
2013-04-15 11:35:00,44.0,23.0,-100.00,WSW,240,6.0,8.0,44,0.00,,,-99.99,,2013-04-15 15:35:00,
2013-04-15 11:44:00,44.0,22.0,-100.00,WSW,250,5.0,9.0,41,0.00,,,-99.99,,2013-04-15 15:44:00,
2013-04-15 11:53:00,45.0,24.0,-100.00,South,185,4.0,12.0,42,0.00,,,-99.99,,2013-04-15 15:53:00,
2013-04-15 12:05:00,45.0,23.0,-100.00,SW,230,4.0,12.0,41,0.00,,,-99.99,,2013-04-15 16:05:00,
2013-04-15 12:13:00,45.0,24.0,-100.00,South,190,6.0,9.0,43,0.00,,,-99.99,,2013-04-15 16:13:00,
2013-04-15 12:24:00,46.0,25.0,-100.00,South,185,5.0,13.0,42,0.00,,,-99.99,,2013-04-15 16:24:00,
2013-04-15 12:33:00,45.0,24.0,-100.00,SSE,160,6.0,11.0,42,0.00,,,-99.99,,2013-04-15 16:33:00,
2013-04-15 12:44:00,47.0,23.0,-100.00,SSE,160,4.0,9.0,39,0.00,,,-99.99,,2013-04-15 16:44:00,
2013-04-15 12:53:00,47.0,24.0,-100.00,South,180,2.0,10.0,39,0.00,,,-99.99,,2013-04-15 16:53:00,
2013-04-15 13:22:00,48.0,22.0,-100.00,SSW,200,4.0,8.0,35,0.00,,,-99.99,,2013-04-15 17:22:00,
2013-04-15 13:33:00,49.0,23.0,-100.00,South,175,3.0,9.0,35,0.00,,,-99.99,,2013-04-15 17:33:00,
2013-04-15 13:43:00,50.0,23.0,-100.00,West,260,4.0,12.0,34,0.00,,,-99.99,,2013-04-15 17:43:00,
2013-04-15 13:52:00,50.0,23.0,-100.00,SSW,210,6.0,9.0,34,0.00,,,-99.99,,2013-04-15 17:52:00,
2013-04-15 14:03:00,51.0,23.0,-100.00,SW,230,4.0,10.0,32,0.00,,,-99.99,,2013-04-15 18:03:00,
2013-04-15 14:13:00,51.0,23.0,-100.00,NNE,25,3.0,9.0,32,0.00,,,-99.99,,2013-04-15 18:13:00,
2013-04-15 14:24:00,51.0,23.0,-100.00,North,5,1.0,9.0,32,0.00,,,-99.99,,2013-04-15 18:24:00,
2013-04-15 14:33:00,52.0,24.0,-100.00,WSW,245,5.0,9.0,33,0.00,,,-99.99,,2013-04-15 18:33:00,
2013-04-15 14:42:00,51.0,24.0,-100.00,ENE,70,2.0,9.0,33,0.00,,,-99.99,,2013-04-15 18:42:00,
2013-04-15 15:02:00,52.0,24.0,-100.00,SSE,155,7.0,10.0,33,0.00,,,-99.99,,2013-04-15 19:02:00,
2013-04-15 15:12:00,52.0,25.0,-100.00,SSE,160,4.0,9.0,33,0.00,,,-99.99,,2013-04-15 19:12:00,
2013-04-15 15:22:00,53.0,24.0,-100.00,SSE,165,5.0,7.0,32,0.00,,,-99.99,,2013-04-15 19:22:00,
2013-04-15 15:38:00,54.0,24.0,-100.00,North,-999,-999.0,-999.0,32,0.00,,,-99.99,,2013-04-15 19:38:00,
2013-04-15 15:53:00,54.0,25.0,-100.00,South,175,6.0,10.0,32,0.00,,,-99.99,,2013-04-15 19:53:00,
2013-04-15 15:59:00,54.0,25.0,-100.00,South,180,9.0,12.0,31,0.00,,,-99.99,,2013-04-15 19:59:00,
2013-04-15 16:02:00,55.0,24.0,-100.00,South,180,4.0,13.0,30,0.00,,,-99.99,,2013-04-15 20:02:00,
2013-04-15 16:11:00,55.0,26.0,-100.00,SSE,165,7.0,13.0,31,0.00,,,-99.99,,2013-04-15 20:11:00,
2013-04-15 16:22:00,54.0,26.0,-100.00,South,170,9.0,14.0,33,0.00,,,-99.99,,2013-04-15 20:22:00,
2013-04-15 16:32:00,54.0,25.0,-100.00,SSE,165,8.0,14.0,32,0.00,,,-99.99,,2013-04-15 20:32:00,
2013-04-15 16:42:00,55.0,25.0,-100.00,SSE,165,6.0,12.0,31,0.00,,,-99.99,,2013-04-15 20:42:00,
2013-04-15 16:52:00,55.0,25.0,-100.00,South,180,6.0,13.0,30,0.00,,,-99.99,,2013-04-15 20:52:00,
2013-04-15 17:02:00,56.0,26.0,-100.00,South,170,8.0,11.0,31,0.00,,,-99.99,,2013-04-15 21:02:00,
2013-04-15 17:12:00,56.0,26.0,-100.00,South,175,9.0,14.0,30,0.00,,,-99.99,,2013-04-15 21:12:00,
2013-04-15 17:22:00,56.0,26.0,-100.00,SSE,160,9.0,12.0,31,0.00,,,-99.99,,2013-04-15 21:22:00,
2013-04-15 17:33:00,55.0,26.0,-100.00,South,180,9.0,15.0,31,0.00,,,-99.99,,2013-04-15 21:33:00,
2013-04-15 17:43:00,56.0,26.0,-100.00,South,190,8.0,13.0,31,0.00,,,-99.99,,2013-04-15 21:43:00,
2013-04-15 17:53:00,56.0,26.0,-100.00,South,180,8.0,14.0,31,0.00,,,-99.99,,2013-04-15 21:53:00,
2013-04-15 18:02:00,55.0,27.0,-100.00,SSE,165,11.0,14.0,32,0.00,,,-99.99,,2013-04-15 22:02:00,
2013-04-15 18:13:00,55.0,27.0,-100.00,South,175,9.0,16.0,33,0.00,,,-99.99,,2013-04-15 22:13:00,
2013-04-15 18:23:00,55.0,27.0,-100.00,South,180,7.0,13.0,33,0.00,,,-99.99,,2013-04-15 22:23:00,
2013-04-15 18:33:00,54.0,27.0,-100.00,South,175,10.0,14.0,33,0.00,,,-99.99,,2013-04-15 22:33:00,
2013-04-15 18:42:00,53.0,27.0,-100.00,SSE,165,9.0,15.0,35,0.00,,,-99.99,,2013-04-15 22:42:00,
2013-04-15 18:52:00,53.0,27.0,-100.00,South,170,9.0,12.0,36,0.00,,,-99.99,,2013-04-15 22:52:00,
2013-04-15 19:02:00,53.0,27.0,-100.00,South,170,7.0,11.0,36,0.00,,,-99.99,,2013-04-15 23:02:00,
2013-04-15 19:12:00,53.0,27.0,-100.00,South,175,8.0,11.0,36,0.00,,,-99.99,,2013-04-15 23:12:00,
2013-04-15 19:22:00,53.0,27.0,-100.00,SSE,165,7.0,11.0,37,0.00,,,-99.99,,2013-04-15 23:22:00,
2013-04-15 19:32:00,52.0,27.0,-100.00,South,170,7.0,12.0,37,0.00,,,-99.99,,2013-04-15 23:32:00,
2013-04-15 19:42:00,52.0,28.0,-100.00,South,170,7.0,12.0,39,0.00,,,-99.99,,2013-04-15 23:42:00,
2013-04-15 19:52:00,51.0,28.0,-100.00,South,170,7.0,10.0,41,0.00,,,-99.99,,2013-04-15 23:52:00,
2013-04-15 20:02:00,50.0,28.0,-100.00,SSE,165,7.0,12.0,42,0.00,,,-99.99,,2013-04-16 00:02:00,
2013-04-15 20:12:00,49.0,29.0,-100.00,South,170,7.0,11.0,44,0.00,,,-99.99,,2013-04-16 00:12:00,
2013-04-15 20:22:00,49.0,29.0,-100.00,SSE,165,6.0,9.0,45,0.00,,,-99.99,,2013-04-16 00:22:00,
2013-04-15 20:32:00,48.0,29.0,-100.00,SSE,160,7.0,11.0,46,0.00,,,-99.99,,2013-04-16 00:32:00,
2013-04-15 20:42:00,48.0,30.0,-100.00,South,170,9.0,13.0,49,0.00,,,-99.99,,2013-04-16 00:42:00,
2013-04-15 20:52:00,47.0,31.0,-100.00,South,170,10.0,14.0,53,0.00,,,-99.99,,2013-04-16 00:52:00,
2013-04-15 21:02:00,46.0,31.0,-100.00,South,175,9.0,14.0,55,0.00,,,-99.99,,2013-04-16 01:02:00,
2013-04-15 21:12:00,45.0,31.0,-100.00,SSE,165,9.0,14.0,56,0.00,,,-99.99,,2013-04-16 01:12:00,
2013-04-15 21:22:00,44.0,31.0,-100.00,SSE,165,10.0,16.0,57,0.00,,,-99.99,,2013-04-16 01:22:00,
2013-04-15 21:32:00,44.0,31.0,-100.00,SSE,160,10.0,15.0,58,0.00,,,-99.99,,2013-04-16 01:32:00,
2013-04-15 21:42:00,44.0,31.0,-100.00,South,170,11.0,15.0,59,0.00,,,-99.99,,2013-04-16 01:42:00,
2013-04-15 21:52:00,43.0,30.0,-100.00,SSE,165,11.0,18.0,60,0.00,,,-99.99,,2013-04-16 01:52:00,
2013-04-15 22:02:00,43.0,31.0,-100.00,South,170,11.0,17.0,61,0.00,,,-99.99,,2013-04-16 02:02:00,
2013-04-15 22:12:00,42.0,30.0,-100.00,South,175,11.0,17.0,61,0.00,,,-99.99,,2013-04-16 02:12:00,
2013-04-15 22:22:00,42.0,30.0,-100.00,SSE,160,9.0,16.0,63,0.00,,,-99.99,,2013-04-16 02:22:00,
2013-04-15 22:32:00,42.0,30.0,-100.00,SSE,165,8.0,15.0,63,0.00,,,-99.99,,2013-04-16 02:32:00,
2013-04-15 22:42:00,42.0,31.0,-100.00,South,170,9.0,14.0,65,0.00,,,-99.99,,2013-04-16 02:42:00,
2013-04-15 22:52:00,41.0,31.0,-100.00,South,175,10.0,14.0,65,0.00,,,-99.99,,2013-04-16 02:52:00,
2013-04-15 23:02:00,41.0,31.0,-100.00,South,170,9.0,13.0,66,0.00,,,-99.99,,2013-04-16 03:02:00,
2013-04-15 23:12:00,40.0,31.0,-100.00,South,170,6.0,12.0,68,0.00,,,-99.99,,2013-04-16 03:12:00,
2013-04-15 23:22:00,40.0,31.0,-100.00,South,175,7.0,9.0,69,0.00,,,-99.99,,2013-04-16 03:22:00,
2013-04-15 23:33:00,40.0,31.0,-100.00,South,175,6.0,11.0,70,0.00,,,-99.99,,2013-04-16 03:33:00,
2013-04-15 23:43:00,40.0,31.0,-100.00,SSE,160,6.0,14.0,71,0.00,,,-99.99,,2013-04-16 03:43:00,
2013-04-15 23:52:00,39.0,31.0,-100.00,SSE,160,8.0,11.0,72,0.00,,,-99.99,,2013-04-16 03:52:00,